sensor_id;sensor_type;location;lat;lon;timestamp;P1;durP1;ratioP1;P2;durP2;ratioP2
63114;SDS011;49208;50.874;6.466;2023-07-20T06:02:48;7.75;;;4.70;;
63114;SDS011;49208;50.874;6.466;2023-07-20T06:05:13;8.43;;;5.00;;
63114;SDS011;49208;50.874;6.466;2023-07-20T06:07:39;10.82;;;5.68;;
63114;SDS011;49208;50.874;6.466;2023-07-20T06:10:05;9.20;;;5.28;;
63114;SDS011;49208;50.874;6.466;2023-07-20T06:12:31;10.40;;;5.57;;
63114;SDS011;49208;50.874;6.466;2023-07-20T06:15:01;7.18;;;4.97;;
63114;SDS011;49208;50.874;6.466;2023-07-20T06:17:30;9.98;;;5.32;;
63114;SDS011;49208;50.874;6.466;2023-07-20T06:19:56;8.85;;;5.72;;
63114;SDS011;49208;50.874;6.466;2023-07-20T06:22:21;9.25;;;4.90;;
63114;SDS011;49208;50.874;6.466;2023-07-20T06:24:46;12.18;;;5.85;;
63114;SDS011;49208;50.874;6.466;2023-07-20T06:27:12;8.20;;;5.57;;
63114;SDS011;49208;50.874;6.466;2023-07-20T06:29:37;11.38;;;5.28;;
63114;SDS011;49208;50.874;6.466;2023-07-20T06:32:03;8.55;;;5.25;;
63114;SDS011;49208;50.874;6.466;2023-07-20T06:34:29;9.60;;;5.47;;
63114;SDS011;49208;50.874;6.466;2023-07-20T06:36:55;8.95;;;4.97;;
63114;SDS011;49208;50.874;6.466;2023-07-20T06:39:20;11.00;;;6.20;;
63114;SDS011;49208;50.874;6.466;2023-07-20T06:41:47;10.68;;;6.38;;
63114;SDS011;49208;50.874;6.466;2023-07-20T06:44:12;8.25;;;5.53;;
63114;SDS011;49208;50.874;6.466;2023-07-20T06:46:38;8.45;;;5.00;;
63114;SDS011;49208;50.874;6.466;2023-07-20T06:49:05;7.82;;;5.18;;
63114;SDS011;49208;50.874;6.466;2023-07-20T06:51:31;7.07;;;5.07;;
63114;SDS011;49208;50.874;6.466;2023-07-20T06:53:56;10.38;;;5.10;;
63114;SDS011;49208;50.874;6.466;2023-07-20T06:56:22;9.05;;;5.97;;
63114;SDS011;49208;50.874;6.466;2023-07-20T06:58:47;8.50;;;5.28;;
63114;SDS011;49208;50.874;6.466;2023-07-20T07:01:13;8.80;;;4.78;;
63114;SDS011;49208;50.874;6.466;2023-07-20T07:03:38;8.00;;;5.45;;
63114;SDS011;49208;50.874;6.466;2023-07-20T07:06:04;8.20;;;5.10;;
63114;SDS011;49208;50.874;6.466;2023-07-20T07:08:29;9.60;;;5.40;;
63114;SDS011;49208;50.874;6.466;2023-07-20T07:10:54;9.30;;;5.75;;
63114;SDS011;49208;50.874;6.466;2023-07-20T07:13:20;8.07;;;6.18;;
63114;SDS011;49208;50.874;6.466;2023-07-20T07:15:45;8.63;;;5.80;;
63114;SDS011;49208;50.874;6.466;2023-07-20T07:18:11;8.50;;;5.32;;
63114;SDS011;49208;50.874;6.466;2023-07-20T07:20:36;8.27;;;4.60;;
63114;SDS011;49208;50.874;6.466;2023-07-20T07:23:02;7.45;;;4.32;;
63114;SDS011;49208;50.874;6.466;2023-07-20T07:25:27;6.85;;;4.50;;
63114;SDS011;49208;50.874;6.466;2023-07-20T07:27:53;7.82;;;4.18;;
63114;SDS011;49208;50.874;6.466;2023-07-20T07:32:46;7.40;;;4.00;;
63114;SDS011;49208;50.874;6.466;2023-07-20T07:35:11;5.65;;;3.92;;
63114;SDS011;49208;50.874;6.466;2023-07-20T07:37:37;7.35;;;3.13;;
63114;SDS011;49208;50.874;6.466;2023-07-20T07:40:02;5.50;;;3.57;;
63114;SDS011;49208;50.874;6.466;2023-07-20T07:42:29;6.25;;;4.07;;
63114;SDS011;49208;50.874;6.466;2023-07-20T07:44:54;8.00;;;3.10;;
63114;SDS011;49208;50.874;6.466;2023-07-20T07:47:20;5.63;;;3.28;;
63114;SDS011;49208;50.874;6.466;2023-07-20T07:49:45;5.77;;;3.53;;
63114;SDS011;49208;50.874;6.466;2023-07-20T07:52:10;5.67;;;3.50;;
63114;SDS011;49208;50.874;6.466;2023-07-20T07:54:36;6.20;;;2.90;;
63114;SDS011;49208;50.874;6.466;2023-07-20T07:57:01;6.23;;;3.60;;
63114;SDS011;49208;50.874;6.466;2023-07-20T07:59:27;10.20;;;4.07;;
63114;SDS011;49208;50.874;6.466;2023-07-20T08:01:52;5.03;;;3.37;;
63114;SDS011;49208;50.874;6.466;2023-07-20T08:04:17;8.47;;;3.97;;
63114;SDS011;49208;50.874;6.466;2023-07-20T08:06:43;10.17;;;3.77;;
63114;SDS011;49208;50.874;6.466;2023-07-20T08:09:09;5.63;;;3.00;;
63114;SDS011;49208;50.874;6.466;2023-07-20T08:11:35;12.38;;;4.15;;
63114;SDS011;49208;50.874;6.466;2023-07-20T08:14:00;5.57;;;2.80;;
63114;SDS011;49208;50.874;6.466;2023-07-20T08:16:26;6.22;;;3.45;;
63114;SDS011;49208;50.874;6.466;2023-07-20T08:18:51;5.00;;;3.05;;
63114;SDS011;49208;50.874;6.466;2023-07-20T08:21:17;5.88;;;2.75;;
63114;SDS011;49208;50.874;6.466;2023-07-20T08:23:42;7.50;;;3.42;;
63114;SDS011;49208;50.874;6.466;2023-07-20T08:26:07;4.83;;;3.03;;
63114;SDS011;49208;50.874;6.466;2023-07-20T08:28:33;6.30;;;3.20;;
63114;SDS011;49208;50.874;6.466;2023-07-20T08:30:59;4.60;;;2.60;;
63114;SDS011;49208;50.874;6.466;2023-07-20T08:33:24;6.55;;;2.70;;
63114;SDS011;49208;50.874;6.466;2023-07-20T08:35:50;5.85;;;2.33;;
63114;SDS011;49208;50.874;6.466;2023-07-20T08:38:15;4.10;;;1.90;;
63114;SDS011;49208;50.874;6.466;2023-07-20T08:40:41;4.63;;;2.08;;
63114;SDS011;49208;50.874;6.466;2023-07-20T08:43:09;5.80;;;2.17;;
63114;SDS011;49208;50.874;6.466;2023-07-20T08:45:36;4.30;;;1.70;;
63114;SDS011;49208;50.874;6.466;2023-07-20T08:48:05;4.45;;;2.53;;
63114;SDS011;49208;50.874;6.466;2023-07-20T08:52:58;4.30;;;2.20;;
63114;SDS011;49208;50.874;6.466;2023-07-20T08:55:24;4.68;;;2.50;;
63114;SDS011;49208;50.874;6.466;2023-07-20T08:57:52;5.28;;;2.53;;
63114;SDS011;49208;50.874;6.466;2023-07-20T09:00:19;5.35;;;2.80;;
63114;SDS011;49208;50.874;6.466;2023-07-20T09:02:45;4.80;;;2.22;;
63114;SDS011;49208;50.874;6.466;2023-07-20T09:07:39;4.88;;;3.05;;
63114;SDS011;49208;50.874;6.466;2023-07-20T09:10:05;7.72;;;2.63;;
63114;SDS011;49208;50.874;6.466;2023-07-20T09:12:34;5.95;;;2.33;;
63114;SDS011;49208;50.874;6.466;2023-07-20T09:15:01;3.63;;;2.30;;
63114;SDS011;49208;50.874;6.466;2023-07-20T09:17:26;5.03;;;2.40;;
63114;SDS011;49208;50.874;6.466;2023-07-20T09:19:52;4.03;;;2.40;;
63114;SDS011;49208;50.874;6.466;2023-07-20T09:22:17;3.87;;;2.13;;
63114;SDS011;49208;50.874;6.466;2023-07-20T09:24:43;5.88;;;2.28;;
63114;SDS011;49208;50.874;6.466;2023-07-20T09:27:08;6.83;;;2.80;;
63114;SDS011;49208;50.874;6.466;2023-07-20T09:29:42;4.85;;;2.30;;
63114;SDS011;49208;50.874;6.466;2023-07-20T09:32:19;3.92;;;2.00;;
63114;SDS011;49208;50.874;6.466;2023-07-20T09:34:46;5.63;;;2.70;;
63114;SDS011;49208;50.874;6.466;2023-07-20T09:37:11;5.57;;;2.30;;
63114;SDS011;49208;50.874;6.466;2023-07-20T09:39:43;5.73;;;2.03;;
63114;SDS011;49208;50.874;6.466;2023-07-20T09:42:11;3.92;;;1.80;;
63114;SDS011;49208;50.874;6.466;2023-07-20T09:44:38;6.32;;;2.35;;
63114;SDS011;49208;50.874;6.466;2023-07-20T09:47:03;4.18;;;2.10;;
63114;SDS011;49208;50.874;6.466;2023-07-20T09:49:29;4.03;;;2.10;;
63114;SDS011;49208;50.874;6.466;2023-07-20T09:51:54;4.80;;;2.70;;
63114;SDS011;49208;50.874;6.466;2023-07-20T09:54:21;7.13;;;3.05;;
63114;SDS011;49208;50.874;6.466;2023-07-20T09:56:47;5.15;;;2.20;;
63114;SDS011;49208;50.874;6.466;2023-07-20T09:59:14;4.25;;;2.47;;
63114;SDS011;49208;50.874;6.466;2023-07-20T10:01:40;5.85;;;2.38;;
63114;SDS011;49208;50.874;6.466;2023-07-20T10:04:08;5.07;;;2.40;;
63114;SDS011;49208;50.874;6.466;2023-07-20T10:06:36;4.60;;;2.25;;
63114;SDS011;49208;50.874;6.466;2023-07-20T10:09:07;6.18;;;2.50;;
63114;SDS011;49208;50.874;6.466;2023-07-20T10:11:35;5.57;;;2.65;;
63114;SDS011;49208;50.874;6.466;2023-07-20T10:14:04;4.15;;;2.35;;
63114;SDS011;49208;50.874;6.466;2023-07-20T10:16:32;5.35;;;3.13;;
63114;SDS011;49208;50.874;6.466;2023-07-20T10:22:07;5.55;;;1.90;;
63114;SDS011;49208;50.874;6.466;2023-07-20T10:24:41;5.10;;;2.30;;
63114;SDS011;49208;50.874;6.466;2023-07-20T10:27:10;4.38;;;1.85;;
63114;SDS011;49208;50.874;6.466;2023-07-20T10:29:35;5.77;;;2.67;;
63114;SDS011;49208;50.874;6.466;2023-07-20T10:32:02;3.33;;;2.08;;
63114;SDS011;49208;50.874;6.466;2023-07-20T10:34:30;5.18;;;2.20;;
63114;SDS011;49208;50.874;6.466;2023-07-20T10:36:57;3.38;;;1.90;;
63114;SDS011;49208;50.874;6.466;2023-07-20T10:39:23;4.45;;;2.20;;
63114;SDS011;49208;50.874;6.466;2023-07-20T10:41:50;4.63;;;2.08;;
63114;SDS011;49208;50.874;6.466;2023-07-20T10:44:24;4.05;;;2.15;;
63114;SDS011;49208;50.874;6.466;2023-07-20T10:46:49;3.53;;;1.90;;
63114;SDS011;49208;50.874;6.466;2023-07-20T10:49:14;4.97;;;2.03;;
63114;SDS011;49208;50.874;6.466;2023-07-20T10:51:47;3.25;;;1.85;;
63114;SDS011;49208;50.874;6.466;2023-07-20T10:56:48;4.90;;;1.92;;
63114;SDS011;49208;50.874;6.466;2023-07-20T10:59:20;3.97;;;1.70;;
63114;SDS011;49208;50.874;6.466;2023-07-20T11:02:05;3.22;;;1.73;;
63114;SDS011;49208;50.874;6.466;2023-07-20T11:04:41;7.57;;;1.92;;
63114;SDS011;49208;50.874;6.466;2023-07-20T11:07:08;5.22;;;2.22;;
63114;SDS011;49208;50.874;6.466;2023-07-20T11:09:34;4.30;;;1.80;;
63114;SDS011;49208;50.874;6.466;2023-07-20T11:12:13;2.95;;;1.70;;
63114;SDS011;49208;50.874;6.466;2023-07-20T11:14:40;4.78;;;1.67;;
63114;SDS011;49208;50.874;6.466;2023-07-20T11:19:39;3.08;;;1.30;;
63114;SDS011;49208;50.874;6.466;2023-07-20T11:22:07;4.05;;;1.60;;
63114;SDS011;49208;50.874;6.466;2023-07-20T11:24:34;3.35;;;2.03;;
63114;SDS011;49208;50.874;6.466;2023-07-20T11:26:59;7.40;;;1.70;;
63114;SDS011;49208;50.874;6.466;2023-07-20T11:29:26;4.25;;;2.33;;
63114;SDS011;49208;50.874;6.466;2023-07-20T11:31:52;4.00;;;1.80;;
63114;SDS011;49208;50.874;6.466;2023-07-20T11:34:20;4.50;;;2.00;;
63114;SDS011;49208;50.874;6.466;2023-07-20T11:36:50;4.45;;;1.75;;
63114;SDS011;49208;50.874;6.466;2023-07-20T11:39:17;3.63;;;1.88;;
63114;SDS011;49208;50.874;6.466;2023-07-20T11:41:47;4.88;;;2.00;;
63114;SDS011;49208;50.874;6.466;2023-07-20T11:44:13;3.50;;;1.75;;
63114;SDS011;49208;50.874;6.466;2023-07-20T11:49:07;5.85;;;2.00;;
63114;SDS011;49208;50.874;6.466;2023-07-20T11:51:33;3.83;;;1.70;;
63114;SDS011;49208;50.874;6.466;2023-07-20T11:54:00;3.88;;;1.75;;
63114;SDS011;49208;50.874;6.466;2023-07-20T11:56:27;3.65;;;1.75;;
63114;SDS011;49208;50.874;6.466;2023-07-20T11:58:57;4.25;;;1.42;;
63114;SDS011;49208;50.874;6.466;2023-07-20T12:01:25;4.25;;;2.38;;
63114;SDS011;49208;50.874;6.466;2023-07-20T12:03:57;3.08;;;1.83;;
63114;SDS011;49208;50.874;6.466;2023-07-20T12:06:25;3.47;;;1.75;;
63114;SDS011;49208;50.874;6.466;2023-07-20T12:08:54;4.78;;;1.73;;
63114;SDS011;49208;50.874;6.466;2023-07-20T12:11:36;3.30;;;1.70;;
63114;SDS011;49208;50.874;6.466;2023-07-20T12:14:03;3.15;;;1.70;;
63114;SDS011;49208;50.874;6.466;2023-07-20T12:16:33;4.50;;;2.08;;
63114;SDS011;49208;50.874;6.466;2023-07-20T12:21:43;4.22;;;2.13;;
63114;SDS011;49208;50.874;6.466;2023-07-20T12:24:08;4.10;;;2.10;;
63114;SDS011;49208;50.874;6.466;2023-07-20T12:26:35;3.45;;;1.90;;
63114;SDS011;49208;50.874;6.466;2023-07-20T12:29:01;4.50;;;2.03;;
63114;SDS011;49208;50.874;6.466;2023-07-20T12:31:28;3.70;;;2.20;;
63114;SDS011;49208;50.874;6.466;2023-07-20T12:33:54;5.03;;;2.00;;
63114;SDS011;49208;50.874;6.466;2023-07-20T12:36:21;4.38;;;1.80;;
63114;SDS011;49208;50.874;6.466;2023-07-20T12:38:46;4.20;;;1.87;;
63114;SDS011;49208;50.874;6.466;2023-07-20T12:41:12;5.10;;;1.90;;
63114;SDS011;49208;50.874;6.466;2023-07-20T12:43:39;4.25;;;1.60;;
63114;SDS011;49208;50.874;6.466;2023-07-20T12:46:10;3.00;;;1.48;;
63114;SDS011;49208;50.874;6.466;2023-07-20T12:48:37;2.55;;;1.38;;
63114;SDS011;49208;50.874;6.466;2023-07-20T12:51:03;3.93;;;1.70;;
63114;SDS011;49208;50.874;6.466;2023-07-20T12:53:30;3.28;;;1.50;;
63114;SDS011;49208;50.874;6.466;2023-07-20T12:55:56;4.57;;;1.70;;
63114;SDS011;49208;50.874;6.466;2023-07-20T12:58:21;3.13;;;1.73;;
63114;SDS011;49208;50.874;6.466;2023-07-20T13:00:47;3.78;;;2.00;;
63114;SDS011;49208;50.874;6.466;2023-07-20T13:03:12;3.63;;;1.92;;
63114;SDS011;49208;50.874;6.466;2023-07-20T13:05:37;4.13;;;2.08;;
63114;SDS011;49208;50.874;6.466;2023-07-20T13:08:04;3.37;;;1.87;;
63114;SDS011;49208;50.874;6.466;2023-07-20T13:10:30;3.78;;;1.98;;
63114;SDS011;49208;50.874;6.466;2023-07-20T13:12:56;3.35;;;1.88;;
63114;SDS011;49208;50.874;6.466;2023-07-20T13:15:24;3.33;;;1.87;;
63114;SDS011;49208;50.874;6.466;2023-07-20T13:17:54;3.58;;;2.42;;
63114;SDS011;49208;50.874;6.466;2023-07-20T13:20:19;4.73;;;2.17;;
63114;SDS011;49208;50.874;6.466;2023-07-20T13:22:44;4.43;;;2.17;;
63114;SDS011;49208;50.874;6.466;2023-07-20T13:25:10;3.47;;;1.67;;
63114;SDS011;49208;50.874;6.466;2023-07-20T13:27:35;6.32;;;2.28;;
63114;SDS011;49208;50.874;6.466;2023-07-20T13:30:01;4.82;;;2.30;;
63114;SDS011;49208;50.874;6.466;2023-07-20T13:32:31;4.80;;;2.10;;
63114;SDS011;49208;50.874;6.466;2023-07-20T13:34:57;4.70;;;2.20;;
63114;SDS011;49208;50.874;6.466;2023-07-20T13:37:22;4.50;;;2.20;;
63114;SDS011;49208;50.874;6.466;2023-07-20T13:39:48;3.78;;;2.05;;
63114;SDS011;49208;50.874;6.466;2023-07-20T13:42:13;3.33;;;2.10;;
63114;SDS011;49208;50.874;6.466;2023-07-20T13:44:39;4.57;;;2.03;;
63114;SDS011;49208;50.874;6.466;2023-07-20T13:47:04;4.13;;;2.10;;
63114;SDS011;49208;50.874;6.466;2023-07-20T13:49:32;4.38;;;1.95;;
63114;SDS011;49208;50.874;6.466;2023-07-20T13:51:58;3.60;;;2.07;;
63114;SDS011;49208;50.874;6.466;2023-07-20T13:54:23;3.57;;;1.90;;
63114;SDS011;49208;50.874;6.466;2023-07-20T13:56:49;4.00;;;1.90;;
63114;SDS011;49208;50.874;6.466;2023-07-20T13:59:15;3.70;;;1.90;;
63114;SDS011;49208;50.874;6.466;2023-07-20T14:01:40;3.97;;;2.10;;
63114;SDS011;49208;50.874;6.466;2023-07-20T14:04:06;5.50;;;2.10;;
63114;SDS011;49208;50.874;6.466;2023-07-20T14:06:32;3.60;;;2.17;;
63114;SDS011;49208;50.874;6.466;2023-07-20T14:08:58;4.43;;;1.70;;
63114;SDS011;49208;50.874;6.466;2023-07-20T14:11:24;2.67;;;1.55;;
63114;SDS011;49208;50.874;6.466;2023-07-20T14:13:50;3.37;;;1.83;;
63114;SDS011;49208;50.874;6.466;2023-07-20T14:16:18;3.50;;;2.03;;
63114;SDS011;49208;50.874;6.466;2023-07-20T14:18:43;4.57;;;2.10;;
63114;SDS011;49208;50.874;6.466;2023-07-20T14:21:12;4.90;;;1.90;;
63114;SDS011;49208;50.874;6.466;2023-07-20T14:23:37;3.80;;;2.17;;
63114;SDS011;49208;50.874;6.466;2023-07-20T14:26:03;3.10;;;1.60;;
63114;SDS011;49208;50.874;6.466;2023-07-20T14:30:55;4.80;;;1.53;;
63114;SDS011;49208;50.874;6.466;2023-07-20T14:33:21;3.40;;;1.40;;
63114;SDS011;49208;50.874;6.466;2023-07-20T14:35:47;3.17;;;1.83;;
63114;SDS011;49208;50.874;6.466;2023-07-20T14:38:12;4.88;;;1.70;;
63114;SDS011;49208;50.874;6.466;2023-07-20T14:40:37;3.53;;;1.40;;
63114;SDS011;49208;50.874;6.466;2023-07-20T14:43:03;3.27;;;1.70;;
63114;SDS011;49208;50.874;6.466;2023-07-20T14:45:28;4.53;;;1.50;;
63114;SDS011;49208;50.874;6.466;2023-07-20T14:47:54;3.83;;;1.80;;
63114;SDS011;49208;50.874;6.466;2023-07-20T14:50:19;2.73;;;1.70;;
63114;SDS011;49208;50.874;6.466;2023-07-20T14:52:45;2.55;;;1.35;;
63114;SDS011;49208;50.874;6.466;2023-07-20T14:55:11;3.03;;;1.27;;
63114;SDS011;49208;50.874;6.466;2023-07-20T14:57:36;3.90;;;1.60;;
63114;SDS011;49208;50.874;6.466;2023-07-20T15:00:03;3.80;;;1.65;;
63114;SDS011;49208;50.874;6.466;2023-07-20T15:02:33;3.15;;;1.40;;
63114;SDS011;49208;50.874;6.466;2023-07-20T15:04:58;2.97;;;1.20;;
63114;SDS011;49208;50.874;6.466;2023-07-20T15:07:24;2.80;;;1.30;;
63114;SDS011;49208;50.874;6.466;2023-07-20T15:09:49;2.57;;;1.27;;
63114;SDS011;49208;50.874;6.466;2023-07-20T15:12:15;3.60;;;1.60;;
63114;SDS011;49208;50.874;6.466;2023-07-20T15:14:41;2.67;;;1.43;;
63114;SDS011;49208;50.874;6.466;2023-07-20T15:19:33;3.30;;;1.50;;
63114;SDS011;49208;50.874;6.466;2023-07-20T15:22:01;3.58;;;1.58;;
63114;SDS011;49208;50.874;6.466;2023-07-20T15:24:28;4.60;;;1.50;;
63114;SDS011;49208;50.874;6.466;2023-07-20T15:26:54;2.88;;;1.60;;
63114;SDS011;49208;50.874;6.466;2023-07-20T15:29:19;4.70;;;1.97;;
63114;SDS011;49208;50.874;6.466;2023-07-20T15:31:46;3.90;;;2.13;;
63114;SDS011;49208;50.874;6.466;2023-07-20T15:34:11;3.10;;;1.70;;
63114;SDS011;49208;50.874;6.466;2023-07-20T15:36:39;3.05;;;1.50;;
63114;SDS011;49208;50.874;6.466;2023-07-20T15:39:05;3.13;;;1.40;;
63114;SDS011;49208;50.874;6.466;2023-07-20T15:41:31;5.30;;;1.97;;
63114;SDS011;49208;50.874;6.466;2023-07-20T15:43:56;4.47;;;1.73;;
63114;SDS011;49208;50.874;6.466;2023-07-20T15:49:16;3.10;;;1.63;;
63114;SDS011;49208;50.874;6.466;2023-07-20T15:51:41;3.07;;;1.90;;
63114;SDS011;49208;50.874;6.466;2023-07-20T15:54:08;4.33;;;1.60;;
63114;SDS011;49208;50.874;6.466;2023-07-20T15:56:35;3.72;;;1.80;;
63114;SDS011;49208;50.874;6.466;2023-07-20T15:59:01;4.47;;;2.33;;
63114;SDS011;49208;50.874;6.466;2023-07-20T16:01:27;4.13;;;1.70;;
63114;SDS011;49208;50.874;6.466;2023-07-20T16:03:54;5.13;;;1.90;;
63114;SDS011;49208;50.874;6.466;2023-07-20T16:06:20;4.28;;;1.60;;
63114;SDS011;49208;50.874;6.466;2023-07-20T16:08:45;2.87;;;1.80;;
63114;SDS011;49208;50.874;6.466;2023-07-20T16:11:11;2.73;;;1.70;;
63114;SDS011;49208;50.874;6.466;2023-07-20T16:13:36;2.97;;;1.40;;
63114;SDS011;49208;50.874;6.466;2023-07-20T16:16:02;4.15;;;1.67;;
63114;SDS011;49208;50.874;6.466;2023-07-20T16:18:28;3.17;;;1.42;;
63114;SDS011;49208;50.874;6.466;2023-07-20T16:20:55;2.72;;;1.42;;
63114;SDS011;49208;50.874;6.466;2023-07-20T16:25:46;5.00;;;1.73;;
63114;SDS011;49208;50.874;6.466;2023-07-20T16:28:11;5.27;;;2.03;;
63114;SDS011;49208;50.874;6.466;2023-07-20T16:30:37;3.58;;;1.67;;
63114;SDS011;49208;50.874;6.466;2023-07-20T16:33:02;6.70;;;2.17;;
63114;SDS011;49208;50.874;6.466;2023-07-20T16:35:29;10.63;;;1.65;;
63114;SDS011;49208;50.874;6.466;2023-07-20T16:37:57;3.30;;;1.90;;
63114;SDS011;49208;50.874;6.466;2023-07-20T16:40:23;5.18;;;1.90;;
63114;SDS011;49208;50.874;6.466;2023-07-20T16:42:49;3.37;;;1.53;;
63114;SDS011;49208;50.874;6.466;2023-07-20T16:45:14;3.07;;;1.60;;
63114;SDS011;49208;50.874;6.466;2023-07-20T16:47:40;3.90;;;1.55;;
63114;SDS011;49208;50.874;6.466;2023-07-20T16:50:05;2.72;;;1.33;;
63114;SDS011;49208;50.874;6.466;2023-07-20T16:52:31;3.63;;;1.60;;
63114;SDS011;49208;50.874;6.466;2023-07-20T16:54:56;3.23;;;1.63;;
63114;SDS011;49208;50.874;6.466;2023-07-20T16:57:22;3.67;;;1.52;;
63114;SDS011;49208;50.874;6.466;2023-07-20T16:59:47;2.72;;;1.45;;
63114;SDS011;49208;50.874;6.466;2023-07-20T17:02:13;6.75;;;1.60;;
63114;SDS011;49208;50.874;6.466;2023-07-20T17:04:39;2.60;;;1.40;;
63114;SDS011;49208;50.874;6.466;2023-07-20T17:07:05;4.57;;;1.92;;
63114;SDS011;49208;50.874;6.466;2023-07-20T17:09:31;2.75;;;1.65;;
63114;SDS011;49208;50.874;6.466;2023-07-20T17:11:57;2.55;;;1.50;;
63114;SDS011;49208;50.874;6.466;2023-07-20T17:14:23;2.88;;;1.60;;
63114;SDS011;49208;50.874;6.466;2023-07-20T17:16:48;3.92;;;1.55;;
63114;SDS011;49208;50.874;6.466;2023-07-20T17:19:14;3.72;;;1.60;;
63114;SDS011;49208;50.874;6.466;2023-07-20T17:21:39;2.42;;;1.15;;
63114;SDS011;49208;50.874;6.466;2023-07-20T17:24:05;2.85;;;1.40;;
63114;SDS011;49208;50.874;6.466;2023-07-20T17:26:31;2.95;;;1.55;;
63114;SDS011;49208;50.874;6.466;2023-07-20T17:28:56;3.33;;;1.27;;
63114;SDS011;49208;50.874;6.466;2023-07-20T17:31:22;2.00;;;1.20;;
63114;SDS011;49208;50.874;6.466;2023-07-20T17:33:53;3.55;;;1.63;;
63114;SDS011;49208;50.874;6.466;2023-07-20T17:36:18;2.67;;;1.30;;
63114;SDS011;49208;50.874;6.466;2023-07-20T17:38:44;4.05;;;1.42;;
63114;SDS011;49208;50.874;6.466;2023-07-20T17:41:09;3.42;;;1.40;;
63114;SDS011;49208;50.874;6.466;2023-07-20T17:43:35;4.55;;;1.30;;
63114;SDS011;49208;50.874;6.466;2023-07-20T17:46:01;2.45;;;1.30;;
63114;SDS011;49208;50.874;6.466;2023-07-20T17:48:26;2.63;;;1.42;;
63114;SDS011;49208;50.874;6.466;2023-07-20T17:50:53;3.13;;;1.83;;
63114;SDS011;49208;50.874;6.466;2023-07-20T17:53:19;3.63;;;1.52;;
63114;SDS011;49208;50.874;6.466;2023-07-20T17:55:45;3.15;;;1.20;;
63114;SDS011;49208;50.874;6.466;2023-07-20T17:58:10;2.97;;;1.30;;
63114;SDS011;49208;50.874;6.466;2023-07-20T18:00:36;3.42;;;1.45;;
63114;SDS011;49208;50.874;6.466;2023-07-20T18:03:02;3.03;;;1.20;;
63114;SDS011;49208;50.874;6.466;2023-07-20T18:05:27;2.28;;;1.20;;
63114;SDS011;49208;50.874;6.466;2023-07-20T18:07:53;4.10;;;1.27;;
63114;SDS011;49208;50.874;6.466;2023-07-20T18:10:18;3.10;;;1.30;;
63114;SDS011;49208;50.874;6.466;2023-07-20T18:12:44;3.58;;;1.33;;
63114;SDS011;49208;50.874;6.466;2023-07-20T18:15:10;3.20;;;1.40;;
63114;SDS011;49208;50.874;6.466;2023-07-20T18:17:36;2.42;;;1.60;;
63114;SDS011;49208;50.874;6.466;2023-07-20T18:20:03;3.38;;;1.70;;
63114;SDS011;49208;50.874;6.466;2023-07-20T18:22:29;2.08;;;1.08;;
63114;SDS011;49208;50.874;6.466;2023-07-20T18:24:55;4.40;;;1.52;;
63114;SDS011;49208;50.874;6.466;2023-07-20T18:27:20;5.30;;;1.40;;
63114;SDS011;49208;50.874;6.466;2023-07-20T18:29:46;2.03;;;1.27;;
63114;SDS011;49208;50.874;6.466;2023-07-20T18:32:11;3.65;;;1.52;;
63114;SDS011;49208;50.874;6.466;2023-07-20T18:34:37;3.10;;;1.67;;
63114;SDS011;49208;50.874;6.466;2023-07-20T18:37:02;3.72;;;1.90;;
63114;SDS011;49208;50.874;6.466;2023-07-20T18:39:28;3.60;;;1.80;;
63114;SDS011;49208;50.874;6.466;2023-07-20T18:41:55;3.85;;;1.77;;
63114;SDS011;49208;50.874;6.466;2023-07-20T18:44:21;8.48;;;2.03;;
63114;SDS011;49208;50.874;6.466;2023-07-20T18:46:47;4.93;;;1.88;;
63114;SDS011;49208;50.874;6.466;2023-07-20T18:49:12;3.88;;;1.50;;
63114;SDS011;49208;50.874;6.466;2023-07-20T18:51:38;4.40;;;1.80;;
63114;SDS011;49208;50.874;6.466;2023-07-20T18:54:03;3.70;;;1.63;;
63114;SDS011;49208;50.874;6.466;2023-07-20T18:56:28;5.32;;;1.90;;
63114;SDS011;49208;50.874;6.466;2023-07-20T18:58:54;3.67;;;1.67;;
63114;SDS011;49208;50.874;6.466;2023-07-20T19:01:19;4.43;;;1.83;;
63114;SDS011;49208;50.874;6.466;2023-07-20T19:03:45;3.20;;;1.80;;
63114;SDS011;49208;50.874;6.466;2023-07-20T19:06:10;4.50;;;1.83;;
63114;SDS011;49208;50.874;6.466;2023-07-20T19:08:35;2.85;;;1.42;;
63114;SDS011;49208;50.874;6.466;2023-07-20T19:11:01;3.28;;;1.30;;
63114;SDS011;49208;50.874;6.466;2023-07-20T19:13:29;3.97;;;1.15;;
63114;SDS011;49208;50.874;6.466;2023-07-20T19:15:55;2.75;;;1.05;;
63114;SDS011;49208;50.874;6.466;2023-07-20T19:18:24;2.03;;;1.17;;
63114;SDS011;49208;50.874;6.466;2023-07-20T19:20:50;3.25;;;1.40;;
63114;SDS011;49208;50.874;6.466;2023-07-20T19:23:16;3.25;;;1.30;;
63114;SDS011;49208;50.874;6.466;2023-07-20T19:25:41;3.15;;;1.20;;
63114;SDS011;49208;50.874;6.466;2023-07-20T19:28:07;2.45;;;1.00;;
63114;SDS011;49208;50.874;6.466;2023-07-20T19:30:32;2.70;;;1.08;;
63114;SDS011;49208;50.874;6.466;2023-07-20T19:32:58;4.55;;;1.50;;
63114;SDS011;49208;50.874;6.466;2023-07-20T19:35:23;5.15;;;1.77;;
63114;SDS011;49208;50.874;6.466;2023-07-20T19:37:49;5.97;;;1.70;;
63114;SDS011;49208;50.874;6.466;2023-07-20T19:40:14;4.38;;;1.50;;
63114;SDS011;49208;50.874;6.466;2023-07-20T19:42:39;6.30;;;1.85;;
63114;SDS011;49208;50.874;6.466;2023-07-20T19:45:05;2.55;;;1.20;;
63114;SDS011;49208;50.874;6.466;2023-07-20T19:47:31;4.28;;;1.50;;
63114;SDS011;49208;50.874;6.466;2023-07-20T19:49:56;4.03;;;1.60;;
63114;SDS011;49208;50.874;6.466;2023-07-20T19:52:22;4.25;;;1.60;;
63114;SDS011;49208;50.874;6.466;2023-07-20T19:54:47;5.75;;;2.05;;
63114;SDS011;49208;50.874;6.466;2023-07-20T19:57:13;5.40;;;1.90;;
63114;SDS011;49208;50.874;6.466;2023-07-20T19:59:38;2.85;;;1.23;;
63114;SDS011;49208;50.874;6.466;2023-07-20T20:02:03;19.92;;;3.88;;
63114;SDS011;49208;50.874;6.466;2023-07-20T20:04:29;18.20;;;4.57;;
63114;SDS011;49208;50.874;6.466;2023-07-20T20:06:55;9.30;;;6.03;;
63114;SDS011;49208;50.874;6.466;2023-07-20T20:09:21;8.50;;;6.72;;
63114;SDS011;49208;50.874;6.466;2023-07-20T20:11:48;11.95;;;7.63;;
63114;SDS011;49208;50.874;6.466;2023-07-20T20:14:13;12.00;;;8.63;;
63114;SDS011;49208;50.874;6.466;2023-07-20T20:16:39;9.40;;;7.63;;
63114;SDS011;49208;50.874;6.466;2023-07-20T20:19:05;8.25;;;7.07;;
63114;SDS011;49208;50.874;6.466;2023-07-20T20:21:31;9.70;;;7.90;;
63114;SDS011;49208;50.874;6.466;2023-07-20T20:23:56;8.80;;;7.88;;
63114;SDS011;49208;50.874;6.466;2023-07-20T20:26:22;11.30;;;7.65;;
63114;SDS011;49208;50.874;6.466;2023-07-20T20:28:47;10.45;;;8.55;;
63114;SDS011;49208;50.874;6.466;2023-07-20T20:31:13;9.30;;;7.65;;
63114;SDS011;49208;50.874;6.466;2023-07-20T20:33:38;12.55;;;8.43;;
63114;SDS011;49208;50.874;6.466;2023-07-20T20:36:04;9.07;;;7.22;;
63114;SDS011;49208;50.874;6.466;2023-07-20T20:38:31;9.18;;;7.40;;
63114;SDS011;49208;50.874;6.466;2023-07-20T20:40:57;10.32;;;8.35;;
63114;SDS011;49208;50.874;6.466;2023-07-20T20:43:23;8.88;;;7.32;;
63114;SDS011;49208;50.874;6.466;2023-07-20T20:45:49;10.27;;;9.13;;
63114;SDS011;49208;50.874;6.466;2023-07-20T20:48:17;8.32;;;7.30;;
63114;SDS011;49208;50.874;6.466;2023-07-20T20:50:42;8.13;;;6.95;;
63114;SDS011;49208;50.874;6.466;2023-07-20T20:53:08;11.85;;;9.38;;
63114;SDS011;49208;50.874;6.466;2023-07-20T20:55:34;8.60;;;7.05;;
63114;SDS011;49208;50.874;6.466;2023-07-20T20:58:00;9.98;;;8.48;;
63114;SDS011;49208;50.874;6.466;2023-07-20T21:00:25;11.25;;;6.50;;
63114;SDS011;49208;50.874;6.466;2023-07-20T21:02:51;9.20;;;8.20;;
63114;SDS011;49208;50.874;6.466;2023-07-20T21:05:17;9.53;;;8.20;;
63114;SDS011;49208;50.874;6.466;2023-07-20T21:07:42;9.40;;;7.28;;
63114;SDS011;49208;50.874;6.466;2023-07-20T21:10:08;9.45;;;7.70;;
63114;SDS011;49208;50.874;6.466;2023-07-20T21:12:35;9.40;;;7.47;;
63114;SDS011;49208;50.874;6.466;2023-07-20T21:15:00;10.15;;;7.97;;